Terminal Aerodrome Forecast
Issued by NWS King Salmon, AK

Home | Current Version | Previous Version | Text Only | Print | Product List | Glossary On
Versions: 1 2 3 4 5 6 7 8 9 10 11 12 13 14
000
FTAK31 PANC 231121
TAFAKN
TAF
PAKN 231121Z 2312/2412 25007KT P6SM -SHRA BKN012 OVC020
      TEMPO 2312/2315 5SM -SHRA BR OVC005
     FM231800 20005KT P6SM BKN025
     FM232200 16015G23KT P6SM VCSH BKN035 BKN050
     FM240500 15018G27KT 6SM -RA BKN020 OVC035=

USA.gov is the U.S. government's official web portal to all federal, state and local government web resources and services.